sensor_id;sensor_type;location;lat;lon;timestamp;P1;durP1;ratioP1;P2;durP2;ratioP2
2173;SDS011;1093;51.424;11.764;2022-10-12T00:00:23;6.07;;;4.93;;
2173;SDS011;1093;51.424;11.764;2022-10-12T00:02:50;9.47;;;5.03;;
2173;SDS011;1093;51.424;11.764;2022-10-12T00:05:17;6.97;;;5.07;;
2173;SDS011;1093;51.424;11.764;2022-10-12T00:07:43;10.10;;;6.87;;
2173;SDS011;1093;51.424;11.764;2022-10-12T00:10:10;11.07;;;5.30;;
2173;SDS011;1093;51.424;11.764;2022-10-12T00:12:37;13.50;;;6.40;;
2173;SDS011;1093;51.424;11.764;2022-10-12T00:15:04;14.23;;;6.77;;
2173;SDS011;1093;51.424;11.764;2022-10-12T00:17:33;12.13;;;6.17;;
2173;SDS011;1093;51.424;11.764;2022-10-12T00:20:00;14.57;;;5.70;;
2173;SDS011;1093;51.424;11.764;2022-10-12T00:22:28;7.57;;;5.43;;
2173;SDS011;1093;51.424;11.764;2022-10-12T00:24:55;7.70;;;5.20;;
2173;SDS011;1093;51.424;11.764;2022-10-12T00:27:22;9.40;;;5.30;;
2173;SDS011;1093;51.424;11.764;2022-10-12T00:29:49;10.00;;;5.30;;
2173;SDS011;1093;51.424;11.764;2022-10-12T00:32:16;13.50;;;5.23;;
2173;SDS011;1093;51.424;11.764;2022-10-12T00:34:44;11.60;;;5.50;;
2173;SDS011;1093;51.424;11.764;2022-10-12T00:37:11;8.40;;;5.40;;
2173;SDS011;1093;51.424;11.764;2022-10-12T00:39:38;8.33;;;5.63;;
2173;SDS011;1093;51.424;11.764;2022-10-12T00:42:05;8.70;;;4.70;;
2173;SDS011;1093;51.424;11.764;2022-10-12T00:44:36;16.87;;;6.43;;
2173;SDS011;1093;51.424;11.764;2022-10-12T00:47:12;11.00;;;5.60;;
2173;SDS011;1093;51.424;11.764;2022-10-12T00:49:47;14.60;;;5.87;;
2173;SDS011;1093;51.424;11.764;2022-10-12T00:52:18;13.03;;;5.50;;
2173;SDS011;1093;51.424;11.764;2022-10-12T00:54:48;8.07;;;5.70;;
2173;SDS011;1093;51.424;11.764;2022-10-12T00:57:16;7.57;;;5.90;;
2173;SDS011;1093;51.424;11.764;2022-10-12T00:59:47;9.30;;;5.30;;
2173;SDS011;1093;51.424;11.764;2022-10-12T01:02:17;16.60;;;5.13;;
2173;SDS011;1093;51.424;11.764;2022-10-12T01:04:45;10.13;;;5.23;;
2173;SDS011;1093;51.424;11.764;2022-10-12T01:07:13;8.43;;;5.23;;
2173;SDS011;1093;51.424;11.764;2022-10-12T01:09:40;12.43;;;5.43;;
2173;SDS011;1093;51.424;11.764;2022-10-12T01:12:07;9.53;;;4.97;;
2173;SDS011;1093;51.424;11.764;2022-10-12T01:14:35;10.47;;;5.40;;
2173;SDS011;1093;51.424;11.764;2022-10-12T01:17:04;10.27;;;5.87;;
2173;SDS011;1093;51.424;11.764;2022-10-12T01:19:43;9.60;;;5.37;;
2173;SDS011;1093;51.424;11.764;2022-10-12T01:22:43;8.53;;;5.20;;
2173;SDS011;1093;51.424;11.764;2022-10-12T01:25:18;7.67;;;5.07;;
2173;SDS011;1093;51.424;11.764;2022-10-12T01:27:56;8.10;;;5.03;;
2173;SDS011;1093;51.424;11.764;2022-10-12T01:30:33;7.23;;;4.60;;
2173;SDS011;1093;51.424;11.764;2022-10-12T01:33:09;8.73;;;6.10;;
2173;SDS011;1093;51.424;11.764;2022-10-12T01:35:45;10.63;;;5.13;;
2173;SDS011;1093;51.424;11.764;2022-10-12T01:38:24;15.10;;;5.90;;
2173;SDS011;1093;51.424;11.764;2022-10-12T01:40:58;6.00;;;4.30;;
2173;SDS011;1093;51.424;11.764;2022-10-12T01:43:33;7.83;;;5.30;;
2173;SDS011;1093;51.424;11.764;2022-10-12T01:46:33;7.13;;;5.07;;
2173;SDS011;1093;51.424;11.764;2022-10-12T01:49:07;9.53;;;5.07;;
2173;SDS011;1093;51.424;11.764;2022-10-12T01:51:38;11.20;;;4.70;;
2173;SDS011;1093;51.424;11.764;2022-10-12T01:54:16;10.30;;;5.37;;
2173;SDS011;1093;51.424;11.764;2022-10-12T01:56:52;7.93;;;4.90;;
2173;SDS011;1093;51.424;11.764;2022-10-12T01:59:27;8.13;;;5.10;;
2173;SDS011;1093;51.424;11.764;2022-10-12T02:02:05;14.97;;;5.23;;
2173;SDS011;1093;51.424;11.764;2022-10-12T02:04:42;8.50;;;5.67;;
2173;SDS011;1093;51.424;11.764;2022-10-12T02:07:14;7.70;;;5.67;;
2173;SDS011;1093;51.424;11.764;2022-10-12T02:09:45;8.53;;;4.77;;
2173;SDS011;1093;51.424;11.764;2022-10-12T02:12:14;8.43;;;5.43;;
2173;SDS011;1093;51.424;11.764;2022-10-12T02:14:44;8.20;;;5.77;;
2173;SDS011;1093;51.424;11.764;2022-10-12T02:17:15;7.87;;;4.73;;
2173;SDS011;1093;51.424;11.764;2022-10-12T02:19:46;11.73;;;5.50;;
2173;SDS011;1093;51.424;11.764;2022-10-12T02:22:15;9.13;;;4.97;;
2173;SDS011;1093;51.424;11.764;2022-10-12T02:24:44;11.77;;;5.17;;
2173;SDS011;1093;51.424;11.764;2022-10-12T02:27:13;10.77;;;5.20;;
2173;SDS011;1093;51.424;11.764;2022-10-12T02:29:43;8.60;;;5.57;;
2173;SDS011;1093;51.424;11.764;2022-10-12T02:32:13;8.60;;;5.70;;
2173;SDS011;1093;51.424;11.764;2022-10-12T02:34:46;8.43;;;5.03;;
2173;SDS011;1093;51.424;11.764;2022-10-12T02:37:18;8.57;;;4.40;;
2173;SDS011;1093;51.424;11.764;2022-10-12T02:39:52;9.10;;;5.07;;
2173;SDS011;1093;51.424;11.764;2022-10-12T02:42:21;11.77;;;4.50;;
2173;SDS011;1093;51.424;11.764;2022-10-12T02:44:51;11.33;;;4.80;;
2173;SDS011;1093;51.424;11.764;2022-10-12T02:47:21;10.40;;;5.60;;
2173;SDS011;1093;51.424;11.764;2022-10-12T02:49:51;6.60;;;4.40;;
2173;SDS011;1093;51.424;11.764;2022-10-12T02:52:20;8.23;;;6.27;;
2173;SDS011;1093;51.424;11.764;2022-10-12T02:54:48;8.43;;;5.20;;
2173;SDS011;1093;51.424;11.764;2022-10-12T02:57:15;8.20;;;5.10;;
2173;SDS011;1093;51.424;11.764;2022-10-12T02:59:42;8.37;;;4.77;;
2173;SDS011;1093;51.424;11.764;2022-10-12T03:02:09;8.80;;;4.80;;
2173;SDS011;1093;51.424;11.764;2022-10-12T03:04:38;12.93;;;4.73;;
2173;SDS011;1093;51.424;11.764;2022-10-12T03:07:05;10.07;;;5.20;;
2173;SDS011;1093;51.424;11.764;2022-10-12T03:09:32;10.30;;;5.53;;
2173;SDS011;1093;51.424;11.764;2022-10-12T03:11:59;7.80;;;6.20;;
2173;SDS011;1093;51.424;11.764;2022-10-12T03:14:25;6.50;;;5.80;;
2173;SDS011;1093;51.424;11.764;2022-10-12T03:16:52;10.17;;;5.70;;
2173;SDS011;1093;51.424;11.764;2022-10-12T03:19:19;7.97;;;4.87;;
2173;SDS011;1093;51.424;11.764;2022-10-12T03:21:48;8.30;;;5.37;;
2173;SDS011;1093;51.424;11.764;2022-10-12T03:24:15;10.63;;;5.93;;
2173;SDS011;1093;51.424;11.764;2022-10-12T03:26:41;12.47;;;5.77;;
2173;SDS011;1093;51.424;11.764;2022-10-12T03:29:08;7.73;;;5.10;;
2173;SDS011;1093;51.424;11.764;2022-10-12T03:31:35;13.23;;;6.00;;
2173;SDS011;1093;51.424;11.764;2022-10-12T03:34:02;8.27;;;5.10;;
2173;SDS011;1093;51.424;11.764;2022-10-12T03:36:29;10.90;;;5.10;;
2173;SDS011;1093;51.424;11.764;2022-10-12T03:38:57;9.43;;;5.80;;
2173;SDS011;1093;51.424;11.764;2022-10-12T03:41:24;7.97;;;5.67;;
2173;SDS011;1093;51.424;11.764;2022-10-12T03:43:51;7.13;;;5.53;;
2173;SDS011;1093;51.424;11.764;2022-10-12T03:46:18;8.30;;;5.67;;
2173;SDS011;1093;51.424;11.764;2022-10-12T03:48:45;4.60;;;4.17;;
2173;SDS011;1093;51.424;11.764;2022-10-12T03:51:11;7.23;;;5.33;;
2173;SDS011;1093;51.424;11.764;2022-10-12T03:53:38;8.90;;;6.70;;
2173;SDS011;1093;51.424;11.764;2022-10-12T03:56:07;8.30;;;4.80;;
2173;SDS011;1093;51.424;11.764;2022-10-12T03:58:33;12.63;;;7.20;;
2173;SDS011;1093;51.424;11.764;2022-10-12T04:01:01;9.20;;;4.90;;
2173;SDS011;1093;51.424;11.764;2022-10-12T04:03:28;15.97;;;5.87;;
2173;SDS011;1093;51.424;11.764;2022-10-12T04:05:55;8.47;;;5.27;;
2173;SDS011;1093;51.424;11.764;2022-10-12T04:08:23;6.97;;;5.00;;
2173;SDS011;1093;51.424;11.764;2022-10-12T04:10:51;7.30;;;4.10;;
2173;SDS011;1093;51.424;11.764;2022-10-12T04:13:19;7.20;;;4.60;;
2173;SDS011;1093;51.424;11.764;2022-10-12T04:15:47;8.40;;;4.60;;
2173;SDS011;1093;51.424;11.764;2022-10-12T04:18:14;6.00;;;4.40;;
2173;SDS011;1093;51.424;11.764;2022-10-12T04:20:40;9.27;;;5.10;;
2173;SDS011;1093;51.424;11.764;2022-10-12T04:23:07;7.40;;;4.10;;
2173;SDS011;1093;51.424;11.764;2022-10-12T04:25:34;6.53;;;4.37;;
2173;SDS011;1093;51.424;11.764;2022-10-12T04:28:01;7.30;;;4.93;;
2173;SDS011;1093;51.424;11.764;2022-10-12T04:30:29;8.57;;;5.33;;
2173;SDS011;1093;51.424;11.764;2022-10-12T04:32:57;8.67;;;5.23;;
2173;SDS011;1093;51.424;11.764;2022-10-12T04:35:23;8.03;;;5.00;;
2173;SDS011;1093;51.424;11.764;2022-10-12T04:37:50;9.07;;;4.47;;
2173;SDS011;1093;51.424;11.764;2022-10-12T04:40:18;9.80;;;6.50;;
2173;SDS011;1093;51.424;11.764;2022-10-12T04:42:45;5.40;;;4.80;;
2173;SDS011;1093;51.424;11.764;2022-10-12T04:45:12;13.70;;;6.33;;
2173;SDS011;1093;51.424;11.764;2022-10-12T04:47:40;9.97;;;5.60;;
2173;SDS011;1093;51.424;11.764;2022-10-12T04:50:07;9.80;;;6.60;;
2173;SDS011;1093;51.424;11.764;2022-10-12T04:52:37;12.20;;;6.13;;
2173;SDS011;1093;51.424;11.764;2022-10-12T04:55:07;9.00;;;5.10;;
2173;SDS011;1093;51.424;11.764;2022-10-12T04:57:41;8.77;;;3.93;;
2173;SDS011;1093;51.424;11.764;2022-10-12T05:00:17;8.00;;;4.93;;
2173;SDS011;1093;51.424;11.764;2022-10-12T05:02:46;10.30;;;5.37;;
2173;SDS011;1093;51.424;11.764;2022-10-12T05:05:24;5.00;;;4.50;;
2173;SDS011;1093;51.424;11.764;2022-10-12T05:07:53;6.23;;;5.03;;
2173;SDS011;1093;51.424;11.764;2022-10-12T05:10:20;9.73;;;5.70;;
2173;SDS011;1093;51.424;11.764;2022-10-12T05:12:46;11.80;;;5.43;;
2173;SDS011;1093;51.424;11.764;2022-10-12T05:15:13;9.50;;;4.30;;
2173;SDS011;1093;51.424;11.764;2022-10-12T05:17:40;7.03;;;4.17;;
2173;SDS011;1093;51.424;11.764;2022-10-12T05:20:09;8.00;;;5.70;;
2173;SDS011;1093;51.424;11.764;2022-10-12T05:22:36;9.63;;;5.10;;
2173;SDS011;1093;51.424;11.764;2022-10-12T05:25:04;17.20;;;4.37;;
2173;SDS011;1093;51.424;11.764;2022-10-12T05:27:32;9.77;;;5.60;;
2173;SDS011;1093;51.424;11.764;2022-10-12T05:29:59;8.00;;;5.80;;
2173;SDS011;1093;51.424;11.764;2022-10-12T05:32:25;23.40;;;5.20;;
2173;SDS011;1093;51.424;11.764;2022-10-12T05:34:52;10.37;;;4.93;;
2173;SDS011;1093;51.424;11.764;2022-10-12T05:37:21;11.17;;;5.33;;
2173;SDS011;1093;51.424;11.764;2022-10-12T05:39:48;7.30;;;5.30;;
2173;SDS011;1093;51.424;11.764;2022-10-12T05:42:16;10.00;;;5.10;;
2173;SDS011;1093;51.424;11.764;2022-10-12T05:44:43;9.07;;;4.60;;
2173;SDS011;1093;51.424;11.764;2022-10-12T05:47:09;10.83;;;4.93;;
2173;SDS011;1093;51.424;11.764;2022-10-12T05:49:36;6.10;;;4.27;;
2173;SDS011;1093;51.424;11.764;2022-10-12T05:52:03;9.80;;;4.83;;
2173;SDS011;1093;51.424;11.764;2022-10-12T05:54:32;8.47;;;5.77;;
2173;SDS011;1093;51.424;11.764;2022-10-12T05:56:58;7.67;;;4.07;;
2173;SDS011;1093;51.424;11.764;2022-10-12T05:59:25;11.67;;;5.90;;
2173;SDS011;1093;51.424;11.764;2022-10-12T06:01:52;7.23;;;5.00;;
2173;SDS011;1093;51.424;11.764;2022-10-12T06:04:19;7.20;;;4.07;;
2173;SDS011;1093;51.424;11.764;2022-10-12T06:06:46;12.13;;;7.00;;
2173;SDS011;1093;51.424;11.764;2022-10-12T06:09:13;8.73;;;5.03;;
2173;SDS011;1093;51.424;11.764;2022-10-12T06:11:41;6.87;;;5.77;;
2173;SDS011;1093;51.424;11.764;2022-10-12T06:14:08;9.20;;;4.77;;
2173;SDS011;1093;51.424;11.764;2022-10-12T06:16:35;13.03;;;5.77;;
2173;SDS011;1093;51.424;11.764;2022-10-12T06:19:02;11.63;;;5.13;;
2173;SDS011;1093;51.424;11.764;2022-10-12T06:21:29;14.10;;;6.00;;
2173;SDS011;1093;51.424;11.764;2022-10-12T06:23:56;10.43;;;5.50;;
2173;SDS011;1093;51.424;11.764;2022-10-12T06:26:22;5.27;;;4.60;;
2173;SDS011;1093;51.424;11.764;2022-10-12T06:28:51;10.00;;;5.47;;
2173;SDS011;1093;51.424;11.764;2022-10-12T06:31:18;7.87;;;5.10;;
2173;SDS011;1093;51.424;11.764;2022-10-12T06:33:45;11.47;;;6.87;;
2173;SDS011;1093;51.424;11.764;2022-10-12T06:36:12;8.87;;;6.50;;
2173;SDS011;1093;51.424;11.764;2022-10-12T06:38:38;12.23;;;7.00;;
2173;SDS011;1093;51.424;11.764;2022-10-12T06:41:05;8.87;;;5.50;;
2173;SDS011;1093;51.424;11.764;2022-10-12T06:43:32;14.60;;;6.90;;
2173;SDS011;1093;51.424;11.764;2022-10-12T06:46:00;13.60;;;7.83;;
2173;SDS011;1093;51.424;11.764;2022-10-12T06:48:28;16.33;;;5.93;;
2173;SDS011;1093;51.424;11.764;2022-10-12T06:50:55;12.30;;;7.17;;
2173;SDS011;1093;51.424;11.764;2022-10-12T06:53:22;16.30;;;8.37;;
2173;SDS011;1093;51.424;11.764;2022-10-12T06:55:49;11.83;;;6.97;;
2173;SDS011;1093;51.424;11.764;2022-10-12T06:58:16;18.40;;;7.00;;
2173;SDS011;1093;51.424;11.764;2022-10-12T07:00:43;13.67;;;7.60;;
2173;SDS011;1093;51.424;11.764;2022-10-12T07:03:11;24.93;;;7.20;;
2173;SDS011;1093;51.424;11.764;2022-10-12T07:05:39;10.50;;;7.17;;
2173;SDS011;1093;51.424;11.764;2022-10-12T07:08:06;14.43;;;7.47;;
2173;SDS011;1093;51.424;11.764;2022-10-12T07:10:32;17.00;;;7.90;;
2173;SDS011;1093;51.424;11.764;2022-10-12T07:12:59;16.63;;;9.20;;
2173;SDS011;1093;51.424;11.764;2022-10-12T07:15:26;21.17;;;8.10;;
2173;SDS011;1093;51.424;11.764;2022-10-12T07:17:53;17.77;;;9.53;;
2173;SDS011;1093;51.424;11.764;2022-10-12T07:20:21;16.77;;;9.30;;
2173;SDS011;1093;51.424;11.764;2022-10-12T07:22:48;13.30;;;8.47;;
2173;SDS011;1093;51.424;11.764;2022-10-12T07:25:15;14.47;;;8.47;;
2173;SDS011;1093;51.424;11.764;2022-10-12T07:27:41;16.60;;;9.50;;
2173;SDS011;1093;51.424;11.764;2022-10-12T07:30:11;21.53;;;9.23;;
2173;SDS011;1093;51.424;11.764;2022-10-12T07:32:38;18.10;;;10.97;;
2173;SDS011;1093;51.424;11.764;2022-10-12T07:35:06;17.27;;;11.93;;
2173;SDS011;1093;51.424;11.764;2022-10-12T07:37:35;22.80;;;9.20;;
2173;SDS011;1093;51.424;11.764;2022-10-12T07:40:02;18.43;;;8.80;;
2173;SDS011;1093;51.424;11.764;2022-10-12T07:42:29;21.97;;;9.73;;
2173;SDS011;1093;51.424;11.764;2022-10-12T07:44:56;20.93;;;9.00;;
2173;SDS011;1093;51.424;11.764;2022-10-12T07:47:22;15.77;;;7.77;;
2173;SDS011;1093;51.424;11.764;2022-10-12T07:49:49;21.20;;;9.10;;
2173;SDS011;1093;51.424;11.764;2022-10-12T07:52:16;20.30;;;10.50;;
2173;SDS011;1093;51.424;11.764;2022-10-12T07:54:45;27.23;;;10.97;;
2173;SDS011;1093;51.424;11.764;2022-10-12T07:57:11;20.00;;;12.03;;
2173;SDS011;1093;51.424;11.764;2022-10-12T07:59:38;19.40;;;10.60;;
2173;SDS011;1093;51.424;11.764;2022-10-12T08:02:05;21.73;;;10.77;;
2173;SDS011;1093;51.424;11.764;2022-10-12T08:04:32;19.60;;;12.90;;
2173;SDS011;1093;51.424;11.764;2022-10-12T08:06:59;32.53;;;14.63;;
2173;SDS011;1093;51.424;11.764;2022-10-12T08:09:26;29.97;;;14.87;;
2173;SDS011;1093;51.424;11.764;2022-10-12T08:11:55;28.03;;;15.63;;
2173;SDS011;1093;51.424;11.764;2022-10-12T08:14:22;17.57;;;13.47;;
2173;SDS011;1093;51.424;11.764;2022-10-12T08:16:49;16.93;;;14.03;;
2173;SDS011;1093;51.424;11.764;2022-10-12T08:19:17;23.00;;;14.00;;
2173;SDS011;1093;51.424;11.764;2022-10-12T08:21:44;19.87;;;13.57;;
2173;SDS011;1093;51.424;11.764;2022-10-12T08:24:11;20.37;;;14.47;;
2173;SDS011;1093;51.424;11.764;2022-10-12T08:26:38;20.73;;;13.60;;
2173;SDS011;1093;51.424;11.764;2022-10-12T08:29:06;21.13;;;14.63;;
2173;SDS011;1093;51.424;11.764;2022-10-12T08:31:33;19.60;;;14.53;;
2173;SDS011;1093;51.424;11.764;2022-10-12T08:34:00;24.20;;;14.33;;
2173;SDS011;1093;51.424;11.764;2022-10-12T08:36:28;26.50;;;14.53;;
2173;SDS011;1093;51.424;11.764;2022-10-12T08:38:55;22.90;;;12.47;;
2173;SDS011;1093;51.424;11.764;2022-10-12T08:41:32;30.70;;;13.83;;
2173;SDS011;1093;51.424;11.764;2022-10-12T08:44:11;29.60;;;14.77;;
2173;SDS011;1093;51.424;11.764;2022-10-12T08:46:45;19.10;;;11.90;;
2173;SDS011;1093;51.424;11.764;2022-10-12T08:49:13;22.33;;;13.30;;
2173;SDS011;1093;51.424;11.764;2022-10-12T08:51:44;15.70;;;11.73;;
2173;SDS011;1093;51.424;11.764;2022-10-12T08:54:14;20.00;;;12.73;;
2173;SDS011;1093;51.424;11.764;2022-10-12T08:56:45;17.10;;;12.63;;
2173;SDS011;1093;51.424;11.764;2022-10-12T08:59:14;19.33;;;11.10;;
2173;SDS011;1093;51.424;11.764;2022-10-12T09:01:49;23.97;;;9.87;;
2173;SDS011;1093;51.424;11.764;2022-10-12T09:07:13;15.73;;;9.40;;
2173;SDS011;1093;51.424;11.764;2022-10-12T09:09:50;15.70;;;8.67;;
2173;SDS011;1093;51.424;11.764;2022-10-12T09:12:28;15.03;;;10.80;;
2173;SDS011;1093;51.424;11.764;2022-10-12T09:15:10;16.50;;;9.20;;
2173;SDS011;1093;51.424;11.764;2022-10-12T09:17:42;15.80;;;9.60;;
2173;SDS011;1093;51.424;11.764;2022-10-12T09:20:15;15.70;;;8.93;;
2173;SDS011;1093;51.424;11.764;2022-10-12T09:22:44;11.60;;;8.47;;
2173;SDS011;1093;51.424;11.764;2022-10-12T09:25:14;17.30;;;9.07;;
2173;SDS011;1093;51.424;11.764;2022-10-12T09:27:43;13.20;;;8.63;;
2173;SDS011;1093;51.424;11.764;2022-10-12T09:30:13;12.70;;;8.63;;
2173;SDS011;1093;51.424;11.764;2022-10-12T09:35:36;9.80;;;6.90;;
2173;SDS011;1093;51.424;11.764;2022-10-12T09:38:04;17.20;;;7.03;;
2173;SDS011;1093;51.424;11.764;2022-10-12T09:40:33;10.83;;;6.67;;
2173;SDS011;1093;51.424;11.764;2022-10-12T09:43:01;14.87;;;6.10;;
2173;SDS011;1093;51.424;11.764;2022-10-12T09:45:30;17.60;;;7.30;;
2173;SDS011;1093;51.424;11.764;2022-10-12T09:50:51;12.83;;;5.40;;
2173;SDS011;1093;51.424;11.764;2022-10-12T09:56:08;15.30;;;6.37;;
2173;SDS011;1093;51.424;11.764;2022-10-12T09:58:42;16.10;;;6.37;;
2173;SDS011;1093;51.424;11.764;2022-10-12T10:01:21;15.17;;;5.90;;
2173;SDS011;1093;51.424;11.764;2022-10-12T10:04:05;11.57;;;5.67;;
2173;SDS011;1093;51.424;11.764;2022-10-12T10:06:34;12.07;;;4.83;;
2173;SDS011;1093;51.424;11.764;2022-10-12T10:09:01;11.63;;;7.90;;
2173;SDS011;1093;51.424;11.764;2022-10-12T10:11:28;9.90;;;5.27;;
2173;SDS011;1093;51.424;11.764;2022-10-12T10:13:58;6.20;;;4.87;;
2173;SDS011;1093;51.424;11.764;2022-10-12T10:16:28;9.00;;;4.77;;
2173;SDS011;1093;51.424;11.764;2022-10-12T10:18:56;13.60;;;5.67;;
2173;SDS011;1093;51.424;11.764;2022-10-12T10:21:28;12.03;;;5.60;;
2173;SDS011;1093;51.424;11.764;2022-10-12T10:23:58;25.70;;;5.37;;
2173;SDS011;1093;51.424;11.764;2022-10-12T10:26:27;12.33;;;5.40;;
2173;SDS011;1093;51.424;11.764;2022-10-12T10:28:57;8.67;;;6.00;;
2173;SDS011;1093;51.424;11.764;2022-10-12T10:31:42;8.20;;;5.20;;
2173;SDS011;1093;51.424;11.764;2022-10-12T10:34:23;10.03;;;5.73;;
2173;SDS011;1093;51.424;11.764;2022-10-12T10:36:51;15.63;;;5.33;;
2173;SDS011;1093;51.424;11.764;2022-10-12T10:39:21;10.43;;;5.23;;
2173;SDS011;1093;51.424;11.764;2022-10-12T10:41:52;10.37;;;5.70;;
2173;SDS011;1093;51.424;11.764;2022-10-12T10:44:27;12.60;;;6.23;;
2173;SDS011;1093;51.424;11.764;2022-10-12T10:46:57;12.47;;;5.23;;
2173;SDS011;1093;51.424;11.764;2022-10-12T10:49:29;12.40;;;5.83;;
2173;SDS011;1093;51.424;11.764;2022-10-12T10:52:02;9.90;;;6.40;;
2173;SDS011;1093;51.424;11.764;2022-10-12T10:54:32;15.93;;;5.90;;
2173;SDS011;1093;51.424;11.764;2022-10-12T10:57:01;12.93;;;6.33;;
2173;SDS011;1093;51.424;11.764;2022-10-12T10:59:35;26.60;;;6.20;;
2173;SDS011;1093;51.424;11.764;2022-10-12T11:02:13;13.23;;;6.73;;
2173;SDS011;1093;51.424;11.764;2022-10-12T11:04:56;12.20;;;4.93;;
2173;SDS011;1093;51.424;11.764;2022-10-12T11:07:30;8.73;;;4.97;;
2173;SDS011;1093;51.424;11.764;2022-10-12T11:10:03;7.90;;;5.43;;
2173;SDS011;1093;51.424;11.764;2022-10-12T11:12:41;10.10;;;4.20;;
2173;SDS011;1093;51.424;11.764;2022-10-12T11:15:13;18.00;;;5.30;;
2173;SDS011;1093;51.424;11.764;2022-10-12T11:17:47;14.13;;;4.10;;
2173;SDS011;1093;51.424;11.764;2022-10-12T11:20:23;17.57;;;4.60;;
2173;SDS011;1093;51.424;11.764;2022-10-12T11:23:00;5.47;;;3.93;;
2173;SDS011;1093;51.424;11.764;2022-10-12T11:25:30;17.97;;;4.90;;
2173;SDS011;1093;51.424;11.764;2022-10-12T11:28:03;15.13;;;4.60;;
2173;SDS011;1093;51.424;11.764;2022-10-12T11:30:35;7.00;;;4.40;;
2173;SDS011;1093;51.424;11.764;2022-10-12T11:33:08;10.93;;;5.43;;
2173;SDS011;1093;51.424;11.764;2022-10-12T11:35:40;11.27;;;5.03;;
2173;SDS011;1093;51.424;11.764;2022-10-12T11:38:12;15.33;;;5.27;;
2173;SDS011;1093;51.424;11.764;2022-10-12T11:40:44;13.13;;;4.97;;
2173;SDS011;1093;51.424;11.764;2022-10-12T11:43:16;9.80;;;4.80;;
2173;SDS011;1093;51.424;11.764;2022-10-12T11:45:46;8.07;;;4.67;;
2173;SDS011;1093;51.424;11.764;2022-10-12T11:48:20;10.40;;;4.67;;
2173;SDS011;1093;51.424;11.764;2022-10-12T11:50:49;7.47;;;4.60;;
2173;SDS011;1093;51.424;11.764;2022-10-12T11:53:18;8.63;;;4.60;;
2173;SDS011;1093;51.424;11.764;2022-10-12T11:55:56;14.20;;;4.93;;
2173;SDS011;1093;51.424;11.764;2022-10-12T11:58:30;22.40;;;6.07;;
2173;SDS011;1093;51.424;11.764;2022-10-12T12:01:05;11.07;;;5.27;;
2173;SDS011;1093;51.424;11.764;2022-10-12T12:04:04;8.47;;;5.57;;
2173;SDS011;1093;51.424;11.764;2022-10-12T12:06:49;11.27;;;4.80;;
2173;SDS011;1093;51.424;11.764;2022-10-12T12:12:09;18.87;;;6.77;;
2173;SDS011;1093;51.424;11.764;2022-10-12T12:14:45;7.83;;;5.20;;
2173;SDS011;1093;51.424;11.764;2022-10-12T12:17:28;10.90;;;5.07;;
2173;SDS011;1093;51.424;11.764;2022-10-12T12:19:58;12.60;;;6.20;;
2173;SDS011;1093;51.424;11.764;2022-10-12T12:22:29;12.80;;;6.13;;
2173;SDS011;1093;51.424;11.764;2022-10-12T12:25:16;12.13;;;4.97;;
2173;SDS011;1093;51.424;11.764;2022-10-12T12:27:49;10.40;;;5.00;;
2173;SDS011;1093;51.424;11.764;2022-10-12T12:30:22;10.77;;;4.83;;
2173;SDS011;1093;51.424;11.764;2022-10-12T12:33:24;9.37;;;4.60;;
2173;SDS011;1093;51.424;11.764;2022-10-12T12:35:57;9.30;;;5.30;;
2173;SDS011;1093;51.424;11.764;2022-10-12T12:38:26;9.70;;;5.43;;
2173;SDS011;1093;51.424;11.764;2022-10-12T12:41:01;10.70;;;5.87;;
2173;SDS011;1093;51.424;11.764;2022-10-12T12:46:20;12.63;;;5.97;;
2173;SDS011;1093;51.424;11.764;2022-10-12T12:48:56;7.80;;;4.40;;
2173;SDS011;1093;51.424;11.764;2022-10-12T12:51:30;7.30;;;4.77;;
2173;SDS011;1093;51.424;11.764;2022-10-12T12:54:02;8.77;;;5.40;;
2173;SDS011;1093;51.424;11.764;2022-10-12T12:56:33;10.07;;;5.00;;
2173;SDS011;1093;51.424;11.764;2022-10-12T12:59:20;7.50;;;5.20;;
2173;SDS011;1093;51.424;11.764;2022-10-12T13:02:10;11.30;;;6.50;;
2173;SDS011;1093;51.424;11.764;2022-10-12T13:08:05;9.10;;;5.87;;
2173;SDS011;1093;51.424;11.764;2022-10-12T13:10:41;10.03;;;5.73;;
2173;SDS011;1093;51.424;11.764;2022-10-12T13:13:24;13.57;;;6.67;;
2173;SDS011;1093;51.424;11.764;2022-10-12T13:16:04;8.83;;;5.83;;
2173;SDS011;1093;51.424;11.764;2022-10-12T13:18:44;13.33;;;5.70;;
2173;SDS011;1093;51.424;11.764;2022-10-12T13:21:15;15.23;;;5.83;;
2173;SDS011;1093;51.424;11.764;2022-10-12T13:23:47;9.37;;;6.00;;
2173;SDS011;1093;51.424;11.764;2022-10-12T13:26:17;8.30;;;6.60;;
2173;SDS011;1093;51.424;11.764;2022-10-12T13:28:48;15.03;;;7.07;;
2173;SDS011;1093;51.424;11.764;2022-10-12T13:31:17;20.70;;;7.00;;
2173;SDS011;1093;51.424;11.764;2022-10-12T13:33:49;13.20;;;6.80;;
2173;SDS011;1093;51.424;11.764;2022-10-12T13:36:25;15.03;;;6.13;;
2173;SDS011;1093;51.424;11.764;2022-10-12T13:38:55;11.57;;;6.50;;
2173;SDS011;1093;51.424;11.764;2022-10-12T13:41:23;14.20;;;6.33;;
2173;SDS011;1093;51.424;11.764;2022-10-12T13:43:54;14.67;;;7.40;;
2173;SDS011;1093;51.424;11.764;2022-10-12T13:46:34;15.30;;;5.93;;
2173;SDS011;1093;51.424;11.764;2022-10-12T13:49:08;14.07;;;6.90;;
2173;SDS011;1093;51.424;11.764;2022-10-12T13:51:38;11.03;;;6.80;;
2173;SDS011;1093;51.424;11.764;2022-10-12T13:54:14;17.00;;;7.07;;
2173;SDS011;1093;51.424;11.764;2022-10-12T13:56:42;15.43;;;7.37;;
2173;SDS011;1093;51.424;11.764;2022-10-12T13:59:12;11.77;;;6.97;;
2173;SDS011;1093;51.424;11.764;2022-10-12T14:01:47;14.90;;;6.43;;
2173;SDS011;1093;51.424;11.764;2022-10-12T14:04:21;13.43;;;6.90;;
2173;SDS011;1093;51.424;11.764;2022-10-12T14:06:54;13.03;;;6.40;;
2173;SDS011;1093;51.424;11.764;2022-10-12T14:09:24;9.73;;;6.60;;
2173;SDS011;1093;51.424;11.764;2022-10-12T14:11:53;14.07;;;7.13;;
2173;SDS011;1093;51.424;11.764;2022-10-12T14:14:27;14.47;;;7.20;;
2173;SDS011;1093;51.424;11.764;2022-10-12T14:16:58;14.60;;;6.70;;
2173;SDS011;1093;51.424;11.764;2022-10-12T14:19:33;12.90;;;7.40;;
2173;SDS011;1093;51.424;11.764;2022-10-12T14:22:06;13.93;;;6.90;;
2173;SDS011;1093;51.424;11.764;2022-10-12T14:24:36;11.80;;;6.20;;
2173;SDS011;1093;51.424;11.764;2022-10-12T14:27:03;10.50;;;7.40;;
2173;SDS011;1093;51.424;11.764;2022-10-12T14:29:32;15.37;;;6.90;;
2173;SDS011;1093;51.424;11.764;2022-10-12T14:32:02;14.47;;;7.13;;
2173;SDS011;1093;51.424;11.764;2022-10-12T14:37:28;14.70;;;7.10;;
2173;SDS011;1093;51.424;11.764;2022-10-12T14:39:57;17.27;;;7.13;;
2173;SDS011;1093;51.424;11.764;2022-10-12T14:42:29;11.87;;;8.00;;
2173;SDS011;1093;51.424;11.764;2022-10-12T14:44:58;14.97;;;6.97;;
2173;SDS011;1093;51.424;11.764;2022-10-12T14:47:26;13.97;;;7.90;;
2173;SDS011;1093;51.424;11.764;2022-10-12T14:49:57;10.40;;;7.30;;
2173;SDS011;1093;51.424;11.764;2022-10-12T14:52:27;21.27;;;7.50;;
2173;SDS011;1093;51.424;11.764;2022-10-12T14:55:00;12.63;;;7.80;;
2173;SDS011;1093;51.424;11.764;2022-10-12T14:57:28;12.50;;;7.20;;
2173;SDS011;1093;51.424;11.764;2022-10-12T14:59:55;17.07;;;7.10;;
2173;SDS011;1093;51.424;11.764;2022-10-12T15:02:24;14.47;;;9.83;;
2173;SDS011;1093;51.424;11.764;2022-10-12T15:04:52;15.83;;;8.13;;
2173;SDS011;1093;51.424;11.764;2022-10-12T15:07:21;14.13;;;7.13;;
2173;SDS011;1093;51.424;11.764;2022-10-12T15:09:52;18.27;;;7.10;;
2173;SDS011;1093;51.424;11.764;2022-10-12T15:12:21;20.20;;;9.03;;
2173;SDS011;1093;51.424;11.764;2022-10-12T15:14:49;19.07;;;7.60;;
2173;SDS011;1093;51.424;11.764;2022-10-12T15:17:18;18.93;;;8.90;;
2173;SDS011;1093;51.424;11.764;2022-10-12T15:19:45;10.53;;;7.30;;
2173;SDS011;1093;51.424;11.764;2022-10-12T15:22:14;13.87;;;6.50;;
2173;SDS011;1093;51.424;11.764;2022-10-12T15:24:42;18.97;;;7.77;;
2173;SDS011;1093;51.424;11.764;2022-10-12T15:27:11;12.30;;;7.93;;
2173;SDS011;1093;51.424;11.764;2022-10-12T15:29:40;16.43;;;8.60;;
2173;SDS011;1093;51.424;11.764;2022-10-12T15:32:08;16.73;;;8.10;;